Time;durP1;ratioP1;P1;durP2;ratioP2;P2;SDS_P1;SDS_P2;PMS_P1;PMS_P2;Temp;Humidity;BMP_temperature;BMP_pressure;BME280_temperature;BME280_humidity;BME280_pressure;Samples;Min_cycle;Max_cycle;Signal;HPM_P1;HPM_P2
2022/02/27 00:00:13;;;;;;;76.22;38.02;;;;;;;1.30;73.72;102181.41;1776004;80;25690;-76
2022/02/27 00:02:43;;;;;;;76.00;37.67;;;;;;;1.32;73.60;102178.02;1775183;80;25674;-76
2022/02/27 00:05:09;;;;;;;72.12;36.08;;;;;;;1.35;73.60;102175.48;1767306;81;28311;-77
2022/02/27 00:07:36;;;;;;;79.22;37.63;;;;;;;1.37;73.59;102179.58;1767473;81;25681;-76
2022/02/27 00:10:05;;;;;;;74.80;35.48;;;;;;;1.40;73.71;102183.70;1772708;81;25757;-77
2022/02/27 00:12:32;;;;;;;72.43;33.97;;;;;;;1.41;73.56;102184.80;1772846;80;25658;-77
2022/02/27 00:14:58;;;;;;;70.47;35.35;;;;;;;1.43;73.80;102193.45;1767527;80;25418;-77
2022/02/27 00:17:24;;;;;;;69.40;33.98;;;;;;;1.45;73.64;102191.40;1767508;81;27317;-77
2022/02/27 00:19:51;;;;;;;68.62;31.35;;;;;;;1.48;73.54;102190.16;1767193;81;25558;-78
2022/02/27 00:22:17;;;;;;;66.55;30.48;;;;;;;1.47;73.53;102188.02;1748152;81;25720;-77
2022/02/27 00:24:44;;;;;;;69.05;31.80;;;;;;;1.51;73.69;102196.95;1767474;81;25715;-76
2022/02/27 00:27:10;;;;;;;57.70;28.75;;;;;;;1.53;73.82;102193.04;1772243;80;25685;-77
2022/02/27 00:29:36;;;;;;;60.08;29.57;;;;;;;1.54;73.92;102197.37;1753089;81;27319;-77
2022/02/27 00:32:03;;;;;;;60.03;27.93;;;;;;;1.56;74.05;102195.31;1772650;81;25468;-77
2022/02/27 00:34:31;;;;;;;61.02;28.27;;;;;;;1.58;73.84;102196.45;1759474;81;25551;-77
2022/02/27 00:36:58;;;;;;;63.98;31.12;;;;;;;1.61;73.77;102196.05;1759540;81;25685;-76
2022/02/27 00:39:24;;;;;;;58.63;29.15;;;;;;;1.63;74.01;102199.33;1759675;81;25455;-78
2022/02/27 00:41:51;;;;;;;57.60;28.65;;;;;;;1.66;74.09;102197.59;1759729;81;27316;-76
2022/02/27 00:44:17;;;;;;;56.55;28.50;;;;;;;1.67;74.29;102201.92;1758648;81;25669;-76
2022/02/27 00:46:45;;;;;;;54.73;28.27;;;;;;;1.67;74.24;102202.73;1758642;81;25680;-75
2022/02/27 00:49:12;;;;;;;56.18;27.60;;;;;;;1.68;74.41;102203.02;1772006;80;25772;-76
2022/02/27 00:51:38;;;;;;;58.28;27.07;;;;;;;1.68;74.29;102201.69;1741973;80;25298;-75
2022/02/27 00:54:05;;;;;;;54.90;27.45;;;;;;;1.68;74.21;102203.55;1772066;80;27327;-75
2022/02/27 00:56:31;;;;;;;57.90;26.23;;;;;;;1.71;74.21;102200.48;1772551;80;26249;-75
2022/02/27 00:58:57;;;;;;;57.83;26.85;;;;;;;1.72;74.34;102199.95;1773928;80;25510;-75
2022/02/27 01:01:25;;;;;;;52.43;25.08;;;;;;;1.72;74.52;102198.13;1773869;80;25669;-76
2022/02/27 01:03:52;;;;;;;51.18;26.05;;;;;;;1.73;74.67;102202.42;1777604;80;25313;-75
2022/02/27 01:06:19;;;;;;;53.10;25.68;;;;;;;1.74;74.66;102209.42;1780137;80;28228;-75
2022/02/27 01:08:45;;;;;;;54.13;24.20;;;;;;;1.74;74.70;102201.41;1780454;80;25598;-75
2022/02/27 01:11:11;;;;;;;49.73;24.02;;;;;;;1.76;74.74;102206.55;1779817;80;25610;-77
2022/02/27 01:13:39;;;;;;;49.65;24.90;;;;;;;1.78;74.64;102199.16;1778666;80;26175;-76
2022/02/27 01:16:06;;;;;;;55.92;26.57;;;;;;;1.78;74.85;102200.49;1778975;80;25666;-76
2022/02/27 01:18:35;;;;;;;47.95;25.97;;;;;;;1.78;74.67;102201.30;1778902;80;27960;-76
2022/02/27 01:21:02;;;;;;;43.95;24.12;;;;;;;1.80;74.82;102196.58;1778681;80;25594;-76
2022/02/27 01:23:29;;;;;;;46.30;23.73;;;;;;;1.82;74.67;102203.89;1779614;80;25563;-75
2022/02/27 01:25:55;;;;;;;44.25;22.93;;;;;;;1.81;74.85;102195.56;1778777;80;25787;-77
2022/02/27 01:28:21;;;;;;;46.85;22.17;;;;;;;1.81;74.91;102198.23;1778638;80;25405;-76
2022/02/27 01:30:48;;;;;;;47.48;22.60;;;;;;;1.83;75.12;102202.03;1778871;80;27325;-76
2022/02/27 01:33:14;;;;;;;38.25;21.00;;;;;;;1.83;75.23;102199.37;1778808;80;25613;-77
2022/02/27 01:35:41;;;;;;;43.15;20.35;;;;;;;1.82;75.25;102203.89;1750362;80;25555;-76
2022/02/27 01:38:07;;;;;;;41.65;19.50;;;;;;;1.84;75.32;102197.83;1778897;80;25680;-77
2022/02/27 01:40:34;;;;;;;35.92;17.95;;;;;;;1.84;75.35;102199.17;1779010;80;25387;-76
2022/02/27 01:43:01;;;;;;;39.15;18.25;;;;;;;1.84;75.36;102197.02;1778625;80;27331;-76
2022/02/27 01:45:28;;;;;;;32.17;16.67;;;;;;;1.83;75.21;102198.03;1778927;80;25710;-76
2022/02/27 01:47:54;;;;;;;32.23;15.90;;;;;;;1.82;75.22;102194.55;1778812;80;25470;-76
2022/02/27 01:50:21;;;;;;;28.90;14.83;;;;;;;1.82;75.20;102197.71;1778701;80;25682;-77
2022/02/27 01:52:47;;;;;;;27.37;14.47;;;;;;;1.81;75.20;102199.56;1778987;80;25629;-76
2022/02/27 01:55:15;;;;;;;29.63;14.28;;;;;;;1.81;75.41;102202.23;1779249;80;27292;-75
2022/02/27 01:57:43;;;;;;;27.13;13.05;;;;;;;1.77;75.39;102205.02;1778915;80;25635;-76
2022/02/27 02:00:14;;;;;;;29.18;14.58;;;;;;;1.74;75.17;102204.08;1779226;79;25757;-76
2022/02/27 02:02:43;;;;;;;27.10;13.90;;;;;;;1.71;74.84;102197.00;1778735;80;25692;-76
2022/02/27 02:05:10;;;;;;;27.45;13.75;;;;;;;1.65;74.81;102195.45;1742760;80;26305;-76
2022/02/27 02:07:36;;;;;;;22.85;14.38;;;;;;;1.60;74.73;102197.91;1773472;80;27310;-76
2022/02/27 02:10:04;;;;;;;28.57;14.15;;;;;;;1.55;74.84;102198.17;1773992;80;25642;-76
2022/02/27 02:12:31;;;;;;;27.82;13.43;;;;;;;1.48;74.84;102200.34;1773490;80;25538;-76
2022/02/27 02:14:58;;;;;;;26.55;14.23;;;;;;;1.44;74.91;102196.41;1773342;80;26205;-76
2022/02/27 02:17:26;;;;;;;22.93;12.13;;;;;;;1.40;75.21;102197.84;1773462;80;25215;-76
2022/02/27 02:19:54;;;;;;;25.70;12.85;;;;;;;1.38;75.51;102203.05;1773395;80;27316;-76
2022/02/27 02:22:22;;;;;;;19.40;10.38;;;;;;;1.36;75.46;102199.25;1773343;80;25399;-76
2022/02/27 02:24:49;;;;;;;27.48;13.25;;;;;;;1.36;75.63;102199.77;1773471;80;25403;-76
2022/02/27 02:27:16;;;;;;;20.60;11.78;;;;;;;1.35;75.74;102200.30;1773564;80;25631;-76
2022/02/27 02:29:42;;;;;;;24.65;12.23;;;;;;;1.36;75.83;102195.25;1773865;80;25445;-76
2022/02/27 02:32:09;;;;;;;23.85;12.68;;;;;;;1.37;76.08;102188.09;1773857;80;27334;-76
2022/02/27 02:34:36;;;;;;;21.90;11.18;;;;;;;1.37;75.95;102194.24;1773708;80;25686;-76
2022/02/27 02:37:03;;;;;;;26.87;12.65;;;;;;;1.38;76.09;102194.56;1773768;80;25665;-75
2022/02/27 02:39:31;;;;;;;22.25;11.33;;;;;;;1.38;76.24;102193.23;1773763;80;25737;-75
2022/02/27 02:41:58;;;;;;;19.82;11.68;;;;;;;1.39;76.27;102187.38;1773777;80;25630;-75
2022/02/27 02:44:25;;;;;;;23.05;11.30;;;;;;;1.39;76.31;102191.38;1773614;80;27317;-75
2022/02/27 02:46:52;;;;;;;24.77;11.35;;;;;;;1.38;76.47;102192.39;1773481;80;25598;-76
2022/02/27 02:49:18;;;;;;;21.07;10.88;;;;;;;1.39;76.49;102194.86;1773455;80;25400;-76
2022/02/27 02:51:45;;;;;;;24.98;11.22;;;;;;;1.37;76.43;102199.58;1773425;80;25610;-76
2022/02/27 02:54:12;;;;;;;22.20;11.73;;;;;;;1.37;76.49;102204.91;1773415;80;25529;-76
2022/02/27 02:56:41;;;;;;;18.35;10.70;;;;;;;1.38;76.76;102206.56;1773319;80;27299;-76
2022/02/27 02:59:08;;;;;;;22.30;10.82;;;;;;;1.37;76.77;102204.91;1743307;80;25482;-77
2022/02/27 03:01:34;;;;;;;24.90;11.30;;;;;;;1.37;76.71;102202.77;1773314;80;25513;-76
2022/02/27 03:04:03;;;;;;;21.68;11.80;;;;;;;1.36;76.91;102200.59;1773183;80;26412;-76
2022/02/27 03:06:31;;;;;;;20.75;11.93;;;;;;;1.37;76.95;102202.77;1773330;80;25441;-76
2022/02/27 03:08:58;;;;;;;22.75;10.93;;;;;;;1.39;76.98;102204.19;1773186;80;27382;-76
2022/02/27 03:11:26;;;;;;;23.38;11.28;;;;;;;1.39;76.99;102204.71;1773217;80;25437;-76
2022/02/27 03:13:52;;;;;;;21.40;11.65;;;;;;;1.38;77.01;102210.56;1773322;80;25573;-76
2022/02/27 03:16:19;;;;;;;21.62;11.85;;;;;;;1.37;77.12;102212.09;1773238;80;25849;-75
2022/02/27 03:18:45;;;;;;;21.37;11.95;;;;;;;1.38;77.06;102215.90;1773293;80;25460;-76
2022/02/27 03:21:12;;;;;;;21.02;10.68;;;;;;;1.36;77.48;102211.25;1773260;80;27364;-76
2022/02/27 03:23:39;;;;;;;21.75;11.90;;;;;;;1.32;77.47;102214.54;1743030;80;25767;-76
2022/02/27 03:26:05;;;;;;;20.68;11.28;;;;;;;1.32;77.52;102230.53;1743121;80;25487;-76
2022/02/27 03:28:32;;;;;;;21.37;11.68;;;;;;;1.29;77.58;102223.26;1773190;80;25665;-76
2022/02/27 03:30:58;;;;;;;24.92;12.00;;;;;;;1.29;77.75;102235.74;1773303;80;25444;-75
2022/02/27 03:33:24;;;;;;;25.12;12.05;;;;;;;1.26;77.82;102236.98;1773235;80;27371;-76
2022/02/27 03:35:51;;;;;;;20.25;11.22;;;;;;;1.26;77.95;102240.98;1742985;80;25388;-76
2022/02/27 03:38:18;;;;;;;27.50;13.40;;;;;;;1.24;77.96;102244.36;1773271;80;25590;-76
2022/02/27 03:40:44;;;;;;;24.25;10.80;;;;;;;1.23;78.13;102247.22;1773179;80;25563;-76
2022/02/27 03:43:11;;;;;;;24.25;11.35;;;;;;;1.17;78.08;102234.67;1773282;80;25463;-76
2022/02/27 03:45:37;;;;;;;23.22;11.57;;;;;;;1.14;78.09;102237.73;1773268;80;27397;-76
2022/02/27 03:48:04;;;;;;;25.92;11.43;;;;;;;1.13;78.14;102242.77;1773137;80;25468;-76
2022/02/27 03:50:31;;;;;;;23.05;12.03;;;;;;;1.13;78.21;102241.44;1773266;80;25396;-76
2022/02/27 03:52:57;;;;;;;22.05;11.97;;;;;;;1.10;78.28;102239.45;1773227;80;26228;-76
2022/02/27 03:55:24;;;;;;;23.73;11.57;;;;;;;1.10;78.16;102244.78;1773301;80;25469;-76
2022/02/27 03:57:51;;;;;;;23.92;11.93;;;;;;;1.09;78.29;102242.31;1773219;80;27477;-76
2022/02/27 04:00:18;;;;;;;21.17;11.45;;;;;;;1.09;78.21;102247.64;1773156;80;25557;-75
2022/02/27 04:02:46;;;;;;;21.35;11.50;;;;;;;1.08;78.29;102250.02;1773274;80;25566;-76
2022/02/27 04:05:15;;;;;;;22.75;11.85;;;;;;;1.06;78.35;102247.55;1773151;80;25678;-76
2022/02/27 04:07:42;;;;;;;27.30;11.68;;;;;;;1.03;78.46;102246.59;1773180;80;25392;-76
2022/02/27 04:10:10;;;;;;;21.02;11.20;;;;;;;1.01;78.41;102245.17;1773237;80;27303;-76
2022/02/27 04:12:37;;;;;;;22.25;10.93;;;;;;;0.95;78.38;102244.09;1773158;80;25613;-76
2022/02/27 04:15:05;;;;;;;20.70;11.30;;;;;;;0.93;78.55;102241.62;1773242;80;25557;-76
2022/02/27 04:17:32;;;;;;;20.55;10.80;;;;;;;0.89;78.53;102245.70;1743126;80;25599;-76
2022/02/27 04:19:59;;;;;;;19.98;11.33;;;;;;;0.90;78.70;102242.03;1773405;80;25554;-76
2022/02/27 04:22:27;;;;;;;23.30;10.95;;;;;;;0.90;78.80;102251.36;1773437;80;27327;-76
2022/02/27 04:24:53;;;;;;;21.42;11.05;;;;;;;0.91;78.99;102248.18;1773313;80;25550;-76
2022/02/27 04:27:19;;;;;;;20.80;11.30;;;;;;;0.89;79.06;102253.70;1773351;80;25536;-76
2022/02/27 04:29:46;;;;;;;27.00;12.05;;;;;;;0.88;78.96;102246.72;1773415;80;25791;-76
2022/02/27 04:32:12;;;;;;;21.60;11.40;;;;;;;0.89;79.05;102252.37;1773419;80;25393;-76
2022/02/27 04:34:39;;;;;;;21.68;10.72;;;;;;;0.86;79.02;102254.61;1773402;80;27049;-76
2022/02/27 04:37:06;;;;;;;22.50;11.40;;;;;;;0.85;79.12;102252.95;1773329;80;25530;-76
2022/02/27 04:39:36;;;;;;;20.25;11.45;;;;;;;0.85;79.22;102257.79;1773418;80;25614;-76
2022/02/27 04:42:03;;;;;;;23.52;11.00;;;;;;;0.84;79.33;102255.32;1773340;80;25686;-76
2022/02/27 04:44:31;;;;;;;19.12;10.38;;;;;;;0.84;79.25;102255.32;1773379;80;25591;-76
2022/02/27 04:46:57;;;;;;;23.73;10.05;;;;;;;0.85;79.38;102259.61;1773357;80;27304;-76
2022/02/27 04:49:25;;;;;;;18.32;10.48;;;;;;;0.84;79.44;102251.32;1773278;80;25446;-76
2022/02/27 04:51:52;;;;;;;16.12;9.03;;;;;;;0.83;79.35;102249.66;1773399;80;25394;-76
2022/02/27 04:54:20;;;;;;;17.40;9.65;;;;;;;0.84;79.46;102256.13;1773326;80;25666;-76
2022/02/27 04:56:47;;;;;;;17.57;9.28;;;;;;;0.85;79.40;102259.61;1743280;80;25626;-77
2022/02/27 04:59:14;;;;;;;20.23;10.13;;;;;;;0.81;79.37;102256.52;1773427;80;27318;-77
2022/02/27 05:01:40;;;;;;;18.50;10.10;;;;;;;0.84;79.31;102268.13;1773820;80;25719;-76
2022/02/27 05:04:07;;;;;;;19.48;9.58;;;;;;;0.84;79.48;102262.80;1774839;80;25404;-76
2022/02/27 05:06:33;;;;;;;19.98;10.80;;;;;;;0.84;79.50;102264.13;1779136;80;25691;-76
2022/02/27 05:09:00;;;;;;;22.07;10.43;;;;;;;0.84;79.40;102266.79;1750836;80;25643;-76
2022/02/27 05:11:26;;;;;;;19.00;10.78;;;;;;;0.85;79.40;102276.92;1779159;80;27928;-76
2022/02/27 05:13:53;;;;;;;18.40;9.78;;;;;;;0.85;79.61;102276.92;1779037;80;25609;-77
2022/02/27 05:16:20;;;;;;;19.65;10.25;;;;;;;0.85;79.63;102276.92;1779181;80;25539;-76
2022/02/27 05:18:46;;;;;;;22.35;10.28;;;;;;;0.86;79.66;102285.25;1779083;80;26169;-76
2022/02/27 05:21:13;;;;;;;19.20;9.78;;;;;;;0.87;79.66;102286.88;1779165;80;25407;-76
2022/02/27 05:23:39;;;;;;;18.67;10.08;;;;;;;0.88;79.59;102289.34;1779111;80;27369;-76
2022/02/27 05:26:06;;;;;;;17.67;9.65;;;;;;;0.87;79.63;102293.53;1779036;80;25772;-76
2022/02/27 05:28:32;;;;;;;18.73;9.75;;;;;;;0.89;79.65;102291.00;1779112;80;25515;-76
2022/02/27 05:30:58;;;;;;;21.60;10.53;;;;;;;0.91;79.65;102293.48;1779067;80;25692;-76
2022/02/27 05:33:25;;;;;;;22.27;11.20;;;;;;;0.92;79.79;102297.80;1779175;80;25555;-76
2022/02/27 05:35:51;;;;;;;19.25;10.10;;;;;;;0.91;79.82;102295.63;1779123;80;27554;-76
2022/02/27 05:38:18;;;;;;;22.62;12.05;;;;;;;0.93;79.99;102293.58;1779032;80;25492;-76
2022/02/27 05:40:44;;;;;;;25.27;12.35;;;;;;;0.95;80.04;102297.39;1779100;80;25613;-76
2022/02/27 05:43:11;;;;;;;22.65;10.93;;;;;;;0.95;80.07;102299.23;1779146;80;25645;-76
2022/02/27 05:45:37;;;;;;;22.15;11.43;;;;;;;0.93;80.08;102295.44;1779145;80;25591;-76
2022/02/27 05:48:04;;;;;;;22.45;11.10;;;;;;;0.93;80.11;102296.77;1779106;80;27354;-76
2022/02/27 05:50:30;;;;;;;19.75;10.65;;;;;;;0.92;80.01;102303.13;1779026;79;25757;-77
2022/02/27 05:52:57;;;;;;;22.87;11.00;;;;;;;0.92;80.12;102301.80;1779164;80;25463;-76
2022/02/27 05:55:23;;;;;;;21.62;10.98;;;;;;;0.92;79.97;102298.62;1779108;79;25641;-76
2022/02/27 05:57:49;;;;;;;23.47;11.73;;;;;;;0.93;80.00;102299.43;1779130;80;25462;-76
2022/02/27 06:00:16;;;;;;;21.95;11.95;;;;;;;0.93;80.04;102303.42;1779136;80;27999;-76
2022/02/27 06:02:43;;;;;;;18.87;11.12;;;;;;;0.91;80.19;102303.63;1778976;80;25614;-76
2022/02/27 06:05:09;;;;;;;23.42;11.38;;;;;;;0.93;80.25;102306.91;1776852;80;25586;-77
2022/02/27 06:07:36;;;;;;;21.10;10.68;;;;;;;0.92;80.31;102305.28;1773290;80;25686;-76
2022/02/27 06:10:04;;;;;;;22.58;11.53;;;;;;;0.92;80.17;102307.13;1743173;80;25574;-76
2022/02/27 06:12:30;;;;;;;24.50;11.18;;;;;;;0.92;80.29;102304.46;1773358;80;27389;-76
2022/02/27 06:14:57;;;;;;;22.52;11.45;;;;;;;0.92;80.42;102301.80;1773249;80;25445;-76
2022/02/27 06:17:23;;;;;;;20.85;11.97;;;;;;;0.94;80.51;102311.75;1773332;80;25444;-76
2022/02/27 06:19:50;;;;;;;21.42;11.65;;;;;;;0.95;80.47;102311.23;1773328;80;26294;-76
2022/02/27 06:22:16;;;;;;;22.50;12.47;;;;;;;0.98;80.62;102310.84;1743347;80;25474;-77
2022/02/27 06:24:42;;;;;;;23.80;11.55;;;;;;;0.99;80.59;102315.98;1773366;80;27400;-76
2022/02/27 06:27:10;;;;;;;19.85;10.63;;;;;;;0.99;80.47;102319.98;1773266;80;25446;-76
2022/02/27 06:29:36;;;;;;;20.17;10.65;;;;;;;1.01;80.48;102321.13;1773449;80;25391;-76
2022/02/27 06:32:04;;;;;;;21.45;11.75;;;;;;;1.02;80.58;102315.59;1773329;80;25730;-76
2022/02/27 06:34:30;;;;;;;24.20;12.40;;;;;;;1.05;80.60;102320.52;1773737;80;25581;-77
2022/02/27 06:36:56;;;;;;;24.65;11.70;;;;;;;1.08;80.69;102319.31;1773633;80;27326;-76
2022/02/27 06:39:23;;;;;;;26.12;12.70;;;;;;;1.10;80.83;102321.27;1773786;80;25649;-76
2022/02/27 06:41:49;;;;;;;28.15;14.15;;;;;;;1.15;80.96;102323.36;1773759;80;25629;-76
2022/02/27 06:44:16;;;;;;;27.07;13.45;;;;;;;1.17;80.92;102321.31;1773732;80;25595;-75
2022/02/27 06:46:43;;;;;;;26.05;13.32;;;;;;;1.20;80.89;102324.92;1773775;80;25538;-76
2022/02/27 06:49:11;;;;;;;23.92;12.63;;;;;;;1.21;80.93;102323.39;1773835;80;27452;-76
2022/02/27 06:51:38;;;;;;;26.83;13.90;;;;;;;1.24;81.00;102332.83;1773881;80;25549;-76
2022/02/27 06:54:04;;;;;;;26.17;13.22;;;;;;;1.27;80.91;102334.59;1773594;80;25480;-77
2022/02/27 06:56:31;;;;;;;27.52;13.85;;;;;;;1.28;80.85;102341.58;1774460;80;25606;-76
2022/02/27 06:58:57;;;;;;;29.45;13.43;;;;;;;1.30;80.76;102338.20;1773453;80;25638;-76
2022/02/27 07:01:24;;;;;;;27.60;14.15;;;;;;;1.33;80.78;102342.82;1773425;80;27304;-77
2022/02/27 07:03:50;;;;;;;26.25;13.65;;;;;;;1.35;80.85;102334.95;1773331;80;25638;-77
2022/02/27 07:06:17;;;;;;;22.55;12.35;;;;;;;1.36;80.75;102347.77;1777316;80;25468;-76
2022/02/27 07:08:43;;;;;;;22.65;13.30;;;;;;;1.38;80.75;102349.72;1779119;80;25632;-76
2022/02/27 07:11:10;;;;;;;21.65;11.45;;;;;;;1.39;80.58;102346.05;1779163;80;25453;-76
2022/02/27 07:13:37;;;;;;;24.00;12.90;;;;;;;1.43;80.61;102349.95;1779248;79;27337;-76
2022/02/27 07:16:04;;;;;;;30.72;14.53;;;;;;;1.46;80.53;102352.23;1779117;79;25613;-75
2022/02/27 07:18:30;;;;;;;26.60;13.18;;;;;;;1.47;80.47;102351.22;1779161;80;25403;-75
2022/02/27 07:20:57;;;;;;;19.77;11.93;;;;;;;1.50;80.34;102354.83;1779131;80;25664;-76
2022/02/27 07:23:23;;;;;;;20.40;12.10;;;;;;;1.52;80.45;102359.45;1779219;80;25660;-76
2022/02/27 07:25:50;;;;;;;23.32;13.08;;;;;;;1.55;80.50;102364.89;1779983;80;27331;-75
2022/02/27 07:28:16;;;;;;;24.90;13.30;;;;;;;1.57;80.40;102360.20;1779076;80;25579;-75
2022/02/27 07:30:43;;;;;;;24.60;12.95;;;;;;;1.58;80.54;102363.16;1779198;80;25626;-75
2022/02/27 07:33:10;;;;;;;23.90;13.60;;;;;;;1.60;80.37;102357.96;1779200;80;25766;-75
2022/02/27 07:35:36;;;;;;;27.95;14.47;;;;;;;1.64;80.41;102359.72;1750609;80;25591;-76
2022/02/27 07:38:03;;;;;;;31.40;15.95;;;;;;;1.66;80.39;102358.48;1779137;80;27920;-76
2022/02/27 07:40:30;;;;;;;30.15;14.83;;;;;;;1.69;80.49;102359.95;1779027;80;25823;-75
2022/02/27 07:42:56;;;;;;;33.95;16.50;;;;;;;1.73;80.48;102357.70;1779067;80;25617;-75
2022/02/27 07:45:23;;;;;;;36.65;16.97;;;;;;;1.77;80.48;102361.60;1779137;80;26193;-76
2022/02/27 07:47:49;;;;;;;35.60;17.62;;;;;;;1.81;80.65;102364.20;1779162;80;25385;-76
2022/02/27 07:50:16;;;;;;;41.90;19.40;;;;;;;1.88;80.67;102365.05;1779115;80;27378;-75
2022/02/27 07:52:42;;;;;;;44.88;20.80;;;;;;;1.91;80.37;102367.31;1778835;80;25760;-76
2022/02/27 07:55:09;;;;;;;38.95;18.05;;;;;;;1.92;80.37;102368.95;1779529;80;25660;-76
2022/02/27 07:57:36;;;;;;;32.53;15.93;;;;;;;1.98;80.36;102377.50;1778989;80;25665;-76
2022/02/27 08:00:06;;;;;;;32.05;15.93;;;;;;;2.02;80.33;102374.73;1779037;79;25727;-76
2022/02/27 08:02:33;;;;;;;39.05;18.00;;;;;;;2.07;80.22;102372.80;1779415;79;27372;-77
2022/02/27 08:04:59;;;;;;;40.98;18.85;;;;;;;2.11;80.20;102367.39;1750764;80;25579;-76
2022/02/27 08:07:26;;;;;;;36.40;18.80;;;;;;;2.14;80.03;102370.97;1781474;80;25313;-75
2022/02/27 08:09:52;;;;;;;35.05;18.10;;;;;;;2.17;79.63;102378.58;1781718;80;25589;-76
2022/02/27 08:12:19;;;;;;;33.58;15.83;;;;;;;2.16;79.47;102368.94;1780405;80;25532;-76
2022/02/27 08:14:46;;;;;;;30.35;15.53;;;;;;;2.18;79.28;102369.55;1750850;80;27557;-76
2022/02/27 08:17:18;;;;;;;34.15;16.32;;;;;;;2.20;79.26;102374.70;1779220;80;25618;-76
2022/02/27 08:19:47;;;;;;;32.70;16.10;;;;;;;2.20;79.07;102374.17;1779228;80;25476;-76
2022/02/27 08:22:16;;;;;;;25.27;13.50;;;;;;;2.20;79.02;102372.84;1750646;80;25612;-77
2022/02/27 08:24:45;;;;;;;27.87;14.83;;;;;;;2.24;79.13;102374.07;1779735;80;25712;-77
2022/02/27 08:27:13;;;;;;;25.12;14.45;;;;;;;2.31;79.06;102373.27;1696205;84;25764;-77
2022/02/27 08:29:42;;;;;;;34.78;17.70;;;;;;;2.30;79.04;102368.95;1695711;84;25721;-77
2022/02/27 08:32:08;;;;;;;37.13;20.00;;;;;;;2.35;78.76;102374.01;1695789;83;25846;-77
2022/02/27 08:34:35;;;;;;;34.67;17.80;;;;;;;2.35;78.83;102367.83;1695765;84;25616;-77
2022/02/27 08:37:02;;;;;;;34.38;17.82;;;;;;;2.38;78.69;102361.59;1695864;84;25703;-77
2022/02/27 08:39:29;;;;;;;32.05;17.25;;;;;;;2.41;78.56;102371.84;1695983;84;27324;-77
2022/02/27 08:41:56;;;;;;;30.77;16.93;;;;;;;2.45;78.60;102368.25;1695742;84;25705;-76
2022/02/27 08:44:23;;;;;;;33.70;19.27;;;;;;;2.49;78.62;102368.17;1695919;84;25719;-76
2022/02/27 08:46:50;;;;;;;31.27;17.07;;;;;;;2.55;78.62;102366.00;1695922;84;26325;-76
2022/02/27 08:49:17;;;;;;;32.58;16.65;;;;;;;2.58;78.56;102359.44;1695998;84;25618;-77
2022/02/27 08:51:45;;;;;;;35.48;18.50;;;;;;;2.61;77.91;102366.53;1695963;84;27323;-77
2022/02/27 08:54:12;;;;;;;35.33;19.02;;;;;;;2.63;77.73;102363.66;1695840;84;25712;-76
2022/02/27 08:56:39;;;;;;;43.87;20.88;;;;;;;2.61;77.63;102364.38;1673542;84;25780;-75
2022/02/27 08:59:06;;;;;;;37.40;20.20;;;;;;;2.61;77.41;102364.38;1695755;84;26228;-75
2022/02/27 09:01:33;;;;;;;37.15;18.98;;;;;;;2.57;77.23;102365.30;1695916;84;25920;-75
2022/02/27 09:04:00;;;;;;;37.95;19.73;;;;;;;2.56;77.36;102362.84;1713050;80;27377;-76
2022/02/27 09:06:26;;;;;;;40.98;21.85;;;;;;;2.57;77.51;102365.80;1778804;80;26235;-76
2022/02/27 09:08:53;;;;;;;39.98;20.23;;;;;;;2.59;77.51;102369.11;1778958;80;25250;-76
2022/02/27 09:11:20;;;;;;;35.17;18.10;;;;;;;2.60;77.15;102374.22;1779094;80;25800;-75
2022/02/27 09:13:47;;;;;;;33.23;18.15;;;;;;;2.58;76.73;102369.60;1779338;80;25439;-75
2022/02/27 09:16:14;;;;;;;34.95;17.65;;;;;;;2.60;76.97;102369.41;1779256;80;28028;-76
2022/02/27 09:18:42;;;;;;;35.33;17.77;;;;;;;2.60;76.57;102376.08;1779070;80;25748;-76
2022/02/27 09:21:09;;;;;;;33.88;16.93;;;;;;;2.57;76.53;102370.66;1778923;80;25749;-76
2022/02/27 09:23:41;;;;;;;36.98;18.35;;;;;;;2.59;76.73;102368.59;1778871;80;25698;-77
2022/02/27 09:26:07;;;;;;;29.75;16.50;;;;;;;2.58;76.82;102357.58;1779722;79;25308;-76
2022/02/27 09:28:34;;;;;;;29.60;15.85;;;;;;;2.63;76.47;102361.51;1778850;80;27470;-76
2022/02/27 09:31:00;;;;;;;32.60;16.60;;;;;;;2.61;76.41;102357.70;1778730;80;25621;-77
2022/02/27 09:33:29;;;;;;;26.90;16.27;;;;;;;2.63;76.16;102355.64;1778960;80;25247;-76
2022/02/27 09:35:55;;;;;;;35.68;19.57;;;;;;;2.65;76.15;102356.77;1778772;80;25744;-76
2022/02/27 09:38:22;;;;;;;36.03;20.10;;;;;;;2.70;76.27;102363.14;1778896;80;25708;-76
2022/02/27 09:40:50;;;;;;;24.92;14.45;;;;;;;2.68;75.88;102356.37;1778966;80;27990;-76
2022/02/27 09:43:20;;;;;;;24.87;14.00;;;;;;;2.74;75.84;102368.89;1779069;80;25650;-76
2022/02/27 09:45:47;;;;;;;23.83;13.53;;;;;;;2.84;76.17;102371.16;1778901;80;25672;-76
2022/02/27 09:48:15;;;;;;;23.40;14.18;;;;;;;2.92;76.04;102369.09;1778567;79;25609;-76
2022/02/27 09:50:41;;;;;;;24.55;14.60;;;;;;;2.98;76.32;102370.95;1778654;80;25745;-77
2022/02/27 09:53:11;;;;;;;24.75;15.78;;;;;;;3.10;76.18;102363.62;1778605;80;27326;-76
2022/02/27 09:55:38;;;;;;;26.33;16.07;;;;;;;3.18;75.79;102368.27;1779341;80;25791;-75
2022/02/27 09:58:05;;;;;;;25.27;14.75;;;;;;;3.26;75.64;102377.09;1778537;80;25797;-75
2022/02/27 10:00:33;;;;;;;30.00;17.20;;;;;;;3.37;75.48;102376.43;1778600;80;25701;-75
2022/02/27 10:03:10;;;;;;;28.75;16.25;;;;;;;3.42;74.91;102366.45;1778546;80;25725;-75
2022/02/27 10:05:41;;;;;;;28.07;15.65;;;;;;;3.44;74.54;102367.05;1778510;80;27305;-76
2022/02/27 10:08:09;;;;;;;24.92;14.68;;;;;;;3.48;74.19;102365.62;1772796;80;25550;-76
2022/02/27 10:10:43;;;;;;;35.40;19.87;;;;;;;3.52;73.91;102366.83;1772966;80;25617;-76
2022/02/27 10:13:10;;;;;;;37.30;18.55;;;;;;;3.58;74.12;102365.19;1764435;80;26216;-76
2022/02/27 10:15:37;;;;;;;35.70;21.33;;;;;;;3.63;73.72;102360.83;1773070;80;25722;-76
2022/02/27 10:18:16;;;;;;;43.38;24.82;;;;;;;3.65;73.38;102360.09;1772921;80;27310;-76
2022/02/27 10:20:43;;;;;;;29.82;17.95;;;;;;;3.67;73.09;102355.34;1772962;80;26952;-76
2022/02/27 10:23:10;;;;;;;30.12;19.27;;;;;;;3.69;73.05;102353.27;1772938;80;25694;-74
2022/02/27 10:25:39;;;;;;;33.35;19.32;;;;;;;3.77;73.20;102358.11;1773371;80;26263;-76
2022/02/27 10:28:07;;;;;;;34.88;21.45;;;;;;;3.84;73.14;102356.22;1772867;80;25801;-73
2022/02/27 10:30:38;;;;;;;35.80;20.48;;;;;;;3.87;72.81;102345.90;1772894;80;27241;-79
2022/02/27 10:33:08;;;;;;;32.50;19.80;;;;;;;3.92;73.13;102344.73;1772655;80;25780;-75
2022/02/27 10:35:51;;;;;;;31.10;18.82;;;;;;;4.00;72.71;102346.86;1772851;80;25673;-74
2022/02/27 10:38:51;;;;;;;30.02;17.65;;;;;;;3.99;71.98;102348.72;1742044;80;25773;-74
2022/02/27 10:41:16;;;;;;;30.97;19.17;;;;;;;4.01;71.86;102351.19;1772060;80;25313;-74
2022/02/27 10:43:45;;;;;;;31.15;18.20;;;;;;;4.01;71.77;102343.16;1773203;80;27477;-75
2022/02/27 10:46:13;;;;;;;38.30;21.87;;;;;;;4.08;71.65;102342.06;1772889;80;25416;-75
2022/02/27 10:48:40;;;;;;;24.30;17.75;;;;;;;4.23;72.11;102343.64;1772984;80;25730;-75
2022/02/27 10:51:15;;;;;;;25.82;17.17;;;;;;;4.55;72.16;102343.64;1772857;80;25757;-74
2022/02/27 10:53:47;;;;;;;23.52;14.83;;;;;;;5.28;72.81;102338.09;1772895;80;25740;-74
2022/02/27 10:56:16;;;;;;;23.10;14.75;;;;;;;6.66;74.95;102340.48;1774203;80;27379;-74
2022/02/27 10:58:49;;;;;;;26.48;17.45;;;;;;;7.83;71.59;102340.55;1772869;80;25681;-75
2022/02/27 11:01:24;;;;;;;22.37;14.98;;;;;;;8.20;68.74;102338.80;1769146;80;25713;-75
2022/02/27 11:03:55;;;;;;;27.05;16.12;;;;;;;8.73;67.07;102313.27;1712451;83;25610;-74
2022/02/27 11:06:24;;;;;;;21.35;13.45;;;;;;;9.27;67.66;102326.17;1710959;82;25672;-74
2022/02/27 11:08:51;;;;;;;19.90;13.72;;;;;;;10.82;65.14;102329.88;1703661;84;27848;-73
2022/02/27 11:11:18;;;;;;;21.73;14.43;;;;;;;10.98;62.03;102319.42;1703240;84;25682;-71
2022/02/27 11:13:46;;;;;;;21.00;13.62;;;;;;;11.58;63.65;102316.45;1697642;82;25714;-73
2022/02/27 11:16:15;;;;;;;23.80;14.03;;;;;;;11.77;60.64;102307.27;1693550;84;25656;-73